Kirkland, WA (98034)

1:27 PM PDT on August 26, 2016 (GMT -0700)
| | Change Station
Active Advisory: Heat Advisory

Elev -9999 ft 0.00 °N, 0.00 °E | Updated

Partly Cloudy
Partly Cloudy
88 °F
Feels Like 88 °F
N
7
Wind Variable Wind from WNW
Gusts mph

Today
High -- | Low -- °F
--% Chance of Precip.
Yesterday
High -- | Low -- °F
Precip. -- in
Pressure 29.92 in
Visibility 10.0 miles
Clouds Scattered Clouds 25000 ft
Dew Point 50 °F
Humidity 27%
Rainfall --
Snow Depth Not available.
6:19 AM 7:59 PM
Waning Crescent, 31% visible
METAR KBFI 261953Z 34006KT 10SM SCT250 27/12 A2992 RMK AO2 SLP130 T02720122 $
Pressure 29.92 in
Visibility 10.0 miles
Clouds Scattered Clouds 25000 ft
Dew Point 50 °F
Humidity 27%
Rainfall --
Snow Depth Not available.
6:19 AM 7:59 PM
Waning Crescent, 31% visible
METAR KBFI 261953Z 34006KT 10SM SCT250 27/12 A2992 RMK AO2 SLP130 T02720122 $

10-Day Weather Forecast

Almanac

Astronomy

Aug. 26, 2016 Rise Set
Actual Time
Civil Twilight
Nautical Twilight
Astronomical Twilight
Moon
Length of Visible Light
Length of Day
Tomorrow will be .
, % of the Moon is Illuminated

Today's Extremes

State Highs State Lows

Community

WunderPhotos

Upload Photos

1,935,192 photos uploaded!

WunderBlog® & News

Nearby

Air Quality

  Air Quality AQ Index Pollutant
Not available.

Snow Depth

Station Depth Elevation

Earthquake Activity

City Distance Mag. Time & Date
Minimum magnitude displayed is 2.5.

Coastal Water Temperatures

Place Temperature

Stations

Nearby Weather Stations

Station Location Temp. Windchill Dew Point Humidity Wind Precip. Elev Updated Type
                   

Watches & Warnings

Heat Advisory
Issued: 3:25 AM PDT Aug. 26, 2016 – National Weather Service

... Heat advisory remains in effect until 8 PM PDT this evening...

* temperature... high temperatures this afternoon will again be in
the upper 80s to 90s over the interior of western Washington
from Seattle southward.

* Timing... through this evening.

* Impacts... hot weather increases the potential for dehydration and
heat related illnesses. The elderly... the Young... and those who
work or exercise outdoors will be the most vulnerable to heat
related illnesses if extra precautions are not taken.

Precautionary/preparedness actions...

Young children and pets should never be left unattended in vehicles
under any circumstances. This is especially true during warm or hot
weather when car interiors can reach lethal temperatures in a matter
of minutes.

Take extra precautions if you work or spend time outside. When
possible... reschedule strenuous activities to early morning or
evening. Know the signs and symptoms of heat exhaustion and stroke.
Wear light weight and loose fitting clothing when possible and drink
plenty of water.

If you plan to go boating to escape the heat... wear an approved life
jacket. Drowning is the cause of most boating fatalities. Also...
avoid alcohol as it impairs judgment.